EJU79PK LIMC-LIBD
Flight info
| Callsign | EJU79PK |
|---|---|
| Flight time | 1h 13m |
| Altitude | 35000 |
| Route | VAKON DCT IBUPU DCT NISIL DCT LUMAV DCT RUPAX DCT ALJUB DCT EKKEF DCT PERAV |
| Aircraft | A319/M-SDE3FGHIRWY/LB1 |
Departure
| Time | 2026-04-25 05:26 |
|---|---|
| Airport | Milan Malpensa International Airport (LIMC) |
Arrival
| Time | 2026-04-25 06:39 |
|---|---|
| Airport | Bari Karol Wojtyła International Airport (LIBD) |
| Time | Latitude | Longitude | Altitude | Speed | Heading |
|---|---|---|---|---|---|
| 2026-04-25 05:09 | 45.64605 | 8.72201 | 750 ft | 0 kts | 78° |
| 2026-04-25 05:15 | 45.64604 | 8.72197 | 750 ft | 3 kts | 79° |
| 2026-04-25 05:15 | 45.64601 | 8.72160 | 748 ft | 4 kts | 88° |
| 2026-04-25 05:15 | 45.64602 | 8.72122 | 748 ft | 4 kts | 104° |
| 2026-04-25 05:15 | 45.64613 | 8.72090 | 749 ft | 4 kts | 146° |
| 2026-04-25 05:16 | 45.64613 | 8.72088 | 748 ft | 4 kts | 160° |
| 2026-04-25 05:16 | 45.64589 | 8.72095 | 748 ft | 1 kts | 169° |
| 2026-04-25 05:18 | 45.64557 | 8.72104 | 747 ft | 8 kts | 169° |
| 2026-04-25 05:18 | 45.64497 | 8.72119 | 749 ft | 10 kts | 169° |
| 2026-04-25 05:18 | 45.64431 | 8.72188 | 748 ft | 13 kts | 123° |
| 2026-04-25 05:18 | 45.64353 | 8.72234 | 752 ft | 13 kts | 170° |
| 2026-04-25 05:19 | 45.64250 | 8.72263 | 749 ft | 18 kts | 169° |
| 2026-04-25 05:19 | 45.64129 | 8.72297 | 751 ft | 18 kts | 168° |
| 2026-04-25 05:19 | 45.64007 | 8.72331 | 748 ft | 18 kts | 168° |
| 2026-04-25 05:19 | 45.63942 | 8.72430 | 752 ft | 14 kts | 89° |
| 2026-04-25 05:20 | 45.63929 | 8.72563 | 750 ft | 15 kts | 143° |
| 2026-04-25 05:20 | 45.63817 | 8.72603 | 751 ft | 19 kts | 169° |
| 2026-04-25 05:20 | 45.63686 | 8.72639 | 751 ft | 19 kts | 169° |
| 2026-04-25 05:20 | 45.63555 | 8.72674 | 750 ft | 19 kts | 169° |
| 2026-04-25 05:21 | 45.63416 | 8.72713 | 749 ft | 21 kts | 168° |
| 2026-04-25 05:21 | 45.63275 | 8.72754 | 752 ft | 21 kts | 168° |
| 2026-04-25 05:21 | 45.63135 | 8.72788 | 750 ft | 20 kts | 170° |
| 2026-04-25 05:21 | 45.62994 | 8.72826 | 752 ft | 21 kts | 168° |
| 2026-04-25 05:22 | 45.62853 | 8.72866 | 753 ft | 21 kts | 168° |
| 2026-04-25 05:22 | 45.62710 | 8.72906 | 750 ft | 21 kts | 168° |
| 2026-04-25 05:22 | 45.62566 | 8.72946 | 750 ft | 21 kts | 169° |
| 2026-04-25 05:22 | 45.62421 | 8.72985 | 750 ft | 21 kts | 168° |
| 2026-04-25 05:23 | 45.62276 | 8.73027 | 750 ft | 21 kts | 168° |
| 2026-04-25 05:23 | 45.62129 | 8.73069 | 750 ft | 22 kts | 168° |
| 2026-04-25 05:23 | 45.61980 | 8.73107 | 752 ft | 22 kts | 170° |
| 2026-04-25 05:23 | 45.61830 | 8.73147 | 751 ft | 22 kts | 167° |
| 2026-04-25 05:24 | 45.61712 | 8.73263 | 753 ft | 21 kts | 122° |
| 2026-04-25 05:24 | 45.61643 | 8.73416 | 751 ft | 16 kts | 123° |
| 2026-04-25 05:24 | 45.61590 | 8.73545 | 752 ft | 15 kts | 107° |
| 2026-04-25 05:24 | 45.61601 | 8.73701 | 745 ft | 17 kts | 64° |
| 2026-04-25 05:25 | 45.61688 | 8.73717 | 745 ft | 14 kts | 349° |
| 2026-04-25 05:25 | 45.61947 | 8.73650 | 745 ft | 75 kts | 349° |
| 2026-04-25 05:25 | 45.62688 | 8.73442 | 748 ft | 140 kts | 349° |
| 2026-04-25 05:25 | 45.63765 | 8.73149 | 1084 ft | 159 kts | 350° |
| 2026-04-25 05:26 | 45.64869 | 8.73050 | 1753 ft | 160 kts | 1° |
| 2026-04-25 05:26 | 45.66040 | 8.73060 | 2180 ft | 178 kts | 1° |
| 2026-04-25 05:26 | 45.67343 | 8.73070 | 2557 ft | 198 kts | 2° |
| 2026-04-25 05:26 | 45.68647 | 8.73836 | 2982 ft | 212 kts | 45° |
| 2026-04-25 05:27 | 45.69356 | 8.75685 | 3704 ft | 216 kts | 75° |
| 2026-04-25 05:27 | 45.69773 | 8.77751 | 4540 ft | 219 kts | 73° |
| 2026-04-25 05:27 | 45.70222 | 8.79834 | 5332 ft | 219 kts | 72° |
| 2026-04-25 05:27 | 45.70674 | 8.81940 | 6050 ft | 227 kts | 75° |
| 2026-04-25 05:28 | 45.70905 | 8.84296 | 6461 ft | 250 kts | 88° |
| 2026-04-25 05:28 | 45.70837 | 8.86848 | 7074 ft | 263 kts | 94° |
| 2026-04-25 05:28 | 45.70459 | 8.89521 | 7604 ft | 281 kts | 105° |
| 2026-04-25 05:28 | 45.69922 | 8.92257 | 8379 ft | 290 kts | 106° |
| 2026-04-25 05:29 | 45.69351 | 8.95051 | 9219 ft | 294 kts | 107° |
| 2026-04-25 05:29 | 45.68770 | 8.97858 | 10152 ft | 296 kts | 107° |
| 2026-04-25 05:29 | 45.68177 | 9.00770 | 10551 ft | 317 kts | 106° |
| 2026-04-25 05:29 | 45.67543 | 9.03909 | 10838 ft | 340 kts | 106° |
| 2026-04-25 05:30 | 45.66880 | 9.07217 | 11405 ft | 350 kts | 106° |
| 2026-04-25 05:30 | 45.66207 | 9.10578 | 12146 ft | 354 kts | 106° |
| 2026-04-25 05:30 | 45.65526 | 9.13979 | 12912 ft | 358 kts | 106° |
| 2026-04-25 05:30 | 45.64833 | 9.17421 | 13657 ft | 362 kts | 107° |
| 2026-04-25 05:31 | 45.64136 | 9.20887 | 14347 ft | 366 kts | 107° |
| 2026-04-25 05:31 | 45.63428 | 9.24398 | 15011 ft | 369 kts | 107° |
| 2026-04-25 05:31 | 45.62720 | 9.27893 | 15666 ft | 372 kts | 107° |
| 2026-04-25 05:31 | 45.61995 | 9.31456 | 16326 ft | 375 kts | 108° |
| 2026-04-25 05:32 | 45.61260 | 9.35055 | 16985 ft | 379 kts | 108° |
| 2026-04-25 05:32 | 45.60508 | 9.38741 | 17705 ft | 382 kts | 108° |
| 2026-04-25 05:32 | 45.59771 | 9.42348 | 18333 ft | 386 kts | 108° |
| 2026-04-25 05:32 | 45.59013 | 9.46044 | 18898 ft | 390 kts | 108° |
| 2026-04-25 05:33 | 45.58248 | 9.49774 | 19460 ft | 393 kts | 108° |
| 2026-04-25 05:33 | 45.57473 | 9.53534 | 20026 ft | 397 kts | 108° |
| 2026-04-25 05:33 | 45.56690 | 9.57324 | 20570 ft | 400 kts | 108° |
| 2026-04-25 05:33 | 45.55897 | 9.61161 | 21106 ft | 404 kts | 108° |
| 2026-04-25 05:34 | 45.55095 | 9.65032 | 21647 ft | 408 kts | 108° |
| 2026-04-25 05:34 | 45.54289 | 9.68924 | 22128 ft | 411 kts | 108° |
| 2026-04-25 05:34 | 45.53476 | 9.72854 | 22654 ft | 415 kts | 108° |
| 2026-04-25 05:34 | 45.52655 | 9.76815 | 23169 ft | 418 kts | 108° |
| 2026-04-25 05:35 | 45.51824 | 9.80808 | 23645 ft | 422 kts | 108° |
| 2026-04-25 05:35 | 45.50984 | 9.84830 | 24060 ft | 425 kts | 108° |
| 2026-04-25 05:35 | 45.50147 | 9.88823 | 24468 ft | 428 kts | 108° |
| 2026-04-25 05:35 | 45.49294 | 9.92896 | 24875 ft | 430 kts | 108° |
| 2026-04-25 05:36 | 45.48435 | 9.96992 | 25260 ft | 433 kts | 108° |
| 2026-04-25 05:36 | 45.47357 | 10.00997 | 25662 ft | 433 kts | 117° |
| 2026-04-25 05:36 | 45.45898 | 10.04760 | 26058 ft | 435 kts | 122° |
| 2026-04-25 05:36 | 45.44382 | 10.08497 | 26455 ft | 437 kts | 121° |
| 2026-04-25 05:37 | 45.42861 | 10.12254 | 26838 ft | 440 kts | 121° |
| 2026-04-25 05:37 | 45.41329 | 10.16040 | 27224 ft | 442 kts | 121° |
| 2026-04-25 05:37 | 45.39790 | 10.19839 | 27602 ft | 445 kts | 121° |
| 2026-04-25 05:37 | 45.38237 | 10.23664 | 27989 ft | 447 kts | 121° |
| 2026-04-25 05:38 | 45.36674 | 10.27507 | 28369 ft | 450 kts | 121° |
| 2026-04-25 05:38 | 45.35102 | 10.31371 | 28760 ft | 452 kts | 121° |
| 2026-04-25 05:38 | 45.33523 | 10.35244 | 29120 ft | 454 kts | 121° |
| 2026-04-25 05:38 | 45.31930 | 10.39140 | 29467 ft | 457 kts | 121° |
| 2026-04-25 05:39 | 45.30333 | 10.43050 | 29813 ft | 459 kts | 121° |
| 2026-04-25 05:39 | 45.28726 | 10.46982 | 30151 ft | 461 kts | 121° |
| 2026-04-25 05:39 | 45.27116 | 10.50915 | 30464 ft | 462 kts | 121° |
| 2026-04-25 05:39 | 45.25496 | 10.54865 | 30768 ft | 463 kts | 121° |
| 2026-04-25 05:40 | 45.23868 | 10.58826 | 31054 ft | 465 kts | 121° |
| 2026-04-25 05:40 | 45.22235 | 10.62795 | 31368 ft | 465 kts | 121° |
| 2026-04-25 05:40 | 45.20624 | 10.66702 | 31758 ft | 464 kts | 121° |
| 2026-04-25 05:40 | 45.18974 | 10.70693 | 32189 ft | 463 kts | 121° |
| 2026-04-25 05:41 | 45.17345 | 10.74626 | 32583 ft | 462 kts | 121° |
| 2026-04-25 05:41 | 45.15743 | 10.78497 | 32968 ft | 461 kts | 121° |
| 2026-04-25 05:41 | 45.14126 | 10.82411 | 33369 ft | 460 kts | 121° |
| 2026-04-25 05:41 | 45.12508 | 10.86323 | 33763 ft | 459 kts | 121° |
| 2026-04-25 05:42 | 45.10895 | 10.90216 | 34158 ft | 458 kts | 121° |
| 2026-04-25 05:42 | 45.09285 | 10.94097 | 34492 ft | 458 kts | 121° |
| 2026-04-25 05:42 | 45.07674 | 10.97971 | 34825 ft | 457 kts | 121° |
| 2026-04-25 05:42 | 45.06061 | 11.01843 | 35073 ft | 457 kts | 121° |
| 2026-04-25 05:43 | 45.04446 | 11.05709 | 35131 ft | 455 kts | 121° |
| 2026-04-25 05:43 | 45.01231 | 11.13372 | 35123 ft | 451 kts | 121° |
| 2026-04-25 05:44 | 44.98030 | 11.20993 | 35133 ft | 451 kts | 121° |
| 2026-04-25 05:44 | 44.94891 | 11.28649 | 35118 ft | 451 kts | 120° |
| 2026-04-25 05:45 | 44.91788 | 11.36336 | 35123 ft | 451 kts | 120° |
| 2026-04-25 05:45 | 44.88683 | 11.44011 | 35126 ft | 450 kts | 120° |
| 2026-04-25 05:46 | 44.86086 | 11.50369 | 35116 ft | 450 kts | 120° |
| 2026-04-25 05:46 | 44.82943 | 11.58002 | 35120 ft | 450 kts | 120° |
| 2026-04-25 05:47 | 44.79314 | 11.65146 | 35110 ft | 449 kts | 131° |
| 2026-04-25 05:47 | 44.75234 | 11.71811 | 35119 ft | 449 kts | 131° |
| 2026-04-25 05:48 | 44.71162 | 11.78464 | 35109 ft | 449 kts | 131° |
| 2026-04-25 05:48 | 44.67093 | 11.85111 | 35119 ft | 448 kts | 130° |
| 2026-04-25 05:49 | 44.63046 | 11.91711 | 35110 ft | 448 kts | 131° |
| 2026-04-25 05:49 | 44.58967 | 11.98323 | 35112 ft | 448 kts | 131° |
| 2026-04-25 05:50 | 44.54876 | 12.04934 | 35097 ft | 448 kts | 131° |
| 2026-04-25 05:50 | 44.50799 | 12.11518 | 35099 ft | 447 kts | 130° |
| 2026-04-25 05:51 | 44.46722 | 12.18084 | 35102 ft | 446 kts | 131° |
| 2026-04-25 05:51 | 44.42654 | 12.24629 | 35095 ft | 445 kts | 130° |
| 2026-04-25 05:52 | 44.38586 | 12.31158 | 35093 ft | 445 kts | 131° |
| 2026-04-25 05:52 | 44.34542 | 12.37639 | 35091 ft | 445 kts | 130° |
| 2026-04-25 05:53 | 44.30475 | 12.44142 | 35100 ft | 444 kts | 130° |
| 2026-04-25 05:53 | 44.26409 | 12.50626 | 35098 ft | 443 kts | 130° |
| 2026-04-25 05:54 | 44.22342 | 12.57085 | 35099 ft | 443 kts | 130° |
| 2026-04-25 05:54 | 44.16242 | 12.66748 | 35091 ft | 442 kts | 131° |
| 2026-04-25 05:55 | 44.12172 | 12.73188 | 35087 ft | 442 kts | 130° |
| 2026-04-25 05:55 | 44.08104 | 12.79617 | 35087 ft | 442 kts | 130° |
| 2026-04-25 05:56 | 44.04040 | 12.86009 | 35082 ft | 442 kts | 131° |
| 2026-04-25 05:56 | 43.99964 | 12.92401 | 35077 ft | 442 kts | 131° |
| 2026-04-25 05:57 | 43.95890 | 12.98781 | 35076 ft | 442 kts | 131° |
| 2026-04-25 05:57 | 43.91809 | 13.05157 | 35074 ft | 442 kts | 131° |
| 2026-04-25 05:58 | 43.87731 | 13.11523 | 35073 ft | 442 kts | 131° |
| 2026-04-25 05:58 | 43.83644 | 13.17887 | 35082 ft | 441 kts | 130° |
| 2026-04-25 05:59 | 43.79589 | 13.24186 | 35087 ft | 441 kts | 131° |
| 2026-04-25 05:59 | 43.75508 | 13.30513 | 35087 ft | 440 kts | 131° |
| 2026-04-25 06:00 | 43.71427 | 13.36815 | 35080 ft | 440 kts | 131° |
| 2026-04-25 06:00 | 43.67345 | 13.43118 | 35079 ft | 439 kts | 131° |
| 2026-04-25 06:01 | 43.63264 | 13.49394 | 35080 ft | 439 kts | 131° |
| 2026-04-25 06:01 | 43.59177 | 13.55657 | 35087 ft | 439 kts | 130° |
| 2026-04-25 06:02 | 43.55102 | 13.61908 | 35088 ft | 438 kts | 130° |
| 2026-04-25 06:02 | 43.51023 | 13.68157 | 35084 ft | 438 kts | 130° |
| 2026-04-25 06:03 | 43.46945 | 13.74371 | 35084 ft | 437 kts | 131° |
| 2026-04-25 06:03 | 43.42865 | 13.80580 | 35075 ft | 437 kts | 130° |
| 2026-04-25 06:04 | 43.38796 | 13.86778 | 35075 ft | 437 kts | 130° |
| 2026-04-25 06:04 | 43.34710 | 13.92976 | 35080 ft | 437 kts | 130° |
| 2026-04-25 06:05 | 43.30621 | 13.99158 | 35080 ft | 437 kts | 130° |
| 2026-04-25 06:05 | 43.26533 | 14.05319 | 35078 ft | 437 kts | 130° |
| 2026-04-25 06:06 | 43.22443 | 14.11472 | 35079 ft | 436 kts | 130° |
| 2026-04-25 06:06 | 43.18350 | 14.17628 | 35078 ft | 436 kts | 130° |
| 2026-04-25 06:07 | 43.14258 | 14.23770 | 35077 ft | 436 kts | 130° |
| 2026-04-25 06:07 | 43.10187 | 14.29862 | 35080 ft | 436 kts | 130° |
| 2026-04-25 06:08 | 43.06084 | 14.35972 | 35081 ft | 436 kts | 130° |
| 2026-04-25 06:08 | 43.01978 | 14.42084 | 35079 ft | 436 kts | 130° |
| 2026-04-25 06:09 | 42.97878 | 14.48198 | 35078 ft | 436 kts | 130° |
| 2026-04-25 06:09 | 42.93766 | 14.54306 | 35077 ft | 436 kts | 130° |
| 2026-04-25 06:10 | 42.89658 | 14.60376 | 35072 ft | 436 kts | 130° |
| 2026-04-25 06:10 | 42.85548 | 14.66436 | 35080 ft | 435 kts | 130° |
| 2026-04-25 06:11 | 42.81463 | 14.72458 | 35083 ft | 435 kts | 130° |
| 2026-04-25 06:11 | 42.77354 | 14.78511 | 35085 ft | 435 kts | 130° |
| 2026-04-25 06:12 | 42.73244 | 14.84543 | 35081 ft | 434 kts | 130° |
| 2026-04-25 06:12 | 42.69138 | 14.90564 | 35079 ft | 434 kts | 130° |
| 2026-04-25 06:13 | 42.65031 | 14.96585 | 35084 ft | 434 kts | 130° |
| 2026-04-25 06:14 | 42.59195 | 15.05953 | 35080 ft | 433 kts | 127° |
| 2026-04-25 06:14 | 42.55380 | 15.12284 | 35079 ft | 433 kts | 127° |
| 2026-04-25 06:15 | 42.51522 | 15.18565 | 35083 ft | 433 kts | 128° |
| 2026-04-25 06:15 | 42.47634 | 15.24797 | 35081 ft | 433 kts | 128° |
| 2026-04-25 06:16 | 42.43743 | 15.31032 | 35086 ft | 433 kts | 127° |
| 2026-04-25 06:16 | 42.39877 | 15.37234 | 35086 ft | 433 kts | 127° |
| 2026-04-25 06:17 | 42.35990 | 15.43462 | 34977 ft | 434 kts | 127° |
| 2026-04-25 06:17 | 42.34043 | 15.46581 | 34678 ft | 433 kts | 127° |
| 2026-04-25 06:17 | 42.32090 | 15.49708 | 33797 ft | 438 kts | 128° |
| 2026-04-25 06:17 | 42.30117 | 15.52857 | 32860 ft | 441 kts | 128° |
| 2026-04-25 06:18 | 42.28122 | 15.56037 | 31845 ft | 446 kts | 128° |
| 2026-04-25 06:18 | 42.26110 | 15.59239 | 31055 ft | 447 kts | 128° |
| 2026-04-25 06:18 | 42.24115 | 15.62406 | 30542 ft | 440 kts | 128° |
| 2026-04-25 06:18 | 42.22141 | 15.65542 | 29900 ft | 437 kts | 128° |
| 2026-04-25 06:19 | 42.20185 | 15.68644 | 29280 ft | 432 kts | 128° |
| 2026-04-25 06:19 | 42.18250 | 15.71711 | 28732 ft | 427 kts | 128° |
| 2026-04-25 06:19 | 42.16336 | 15.74742 | 28137 ft | 422 kts | 128° |
| 2026-04-25 06:19 | 42.14461 | 15.77707 | 27593 ft | 418 kts | 128° |
| 2026-04-25 06:20 | 42.12564 | 15.80705 | 27035 ft | 414 kts | 128° |
| 2026-04-25 06:20 | 42.10706 | 15.83638 | 26483 ft | 410 kts | 128° |
| 2026-04-25 06:20 | 42.08884 | 15.86511 | 25950 ft | 406 kts | 128° |
| 2026-04-25 06:20 | 42.07054 | 15.89400 | 25417 ft | 404 kts | 128° |
| 2026-04-25 06:21 | 42.05239 | 15.92268 | 24897 ft | 401 kts | 128° |
| 2026-04-25 06:21 | 42.03434 | 15.95106 | 24327 ft | 399 kts | 128° |
| 2026-04-25 06:21 | 42.01635 | 15.97926 | 23835 ft | 396 kts | 128° |
| 2026-04-25 06:21 | 41.99841 | 16.00736 | 23299 ft | 395 kts | 128° |
| 2026-04-25 06:22 | 41.98063 | 16.03522 | 22822 ft | 391 kts | 128° |
| 2026-04-25 06:22 | 41.96298 | 16.06289 | 22361 ft | 388 kts | 128° |
| 2026-04-25 06:22 | 41.94552 | 16.09025 | 21912 ft | 384 kts | 128° |
| 2026-04-25 06:22 | 41.92816 | 16.11739 | 21450 ft | 381 kts | 129° |
| 2026-04-25 06:23 | 41.91098 | 16.14422 | 20995 ft | 378 kts | 129° |
| 2026-04-25 06:23 | 41.89389 | 16.17091 | 20543 ft | 375 kts | 129° |
| 2026-04-25 06:23 | 41.87695 | 16.19733 | 20076 ft | 372 kts | 129° |
| 2026-04-25 06:23 | 41.86012 | 16.22355 | 19615 ft | 370 kts | 129° |
| 2026-04-25 06:24 | 41.84333 | 16.24969 | 19131 ft | 368 kts | 129° |
| 2026-04-25 06:24 | 41.82664 | 16.27560 | 18661 ft | 367 kts | 129° |
| 2026-04-25 06:24 | 41.81002 | 16.30141 | 18160 ft | 365 kts | 129° |
| 2026-04-25 06:24 | 41.79344 | 16.32716 | 17663 ft | 363 kts | 129° |
| 2026-04-25 06:25 | 41.77704 | 16.35262 | 17194 ft | 360 kts | 129° |
| 2026-04-25 06:25 | 41.76069 | 16.37800 | 16721 ft | 358 kts | 129° |
| 2026-04-25 06:25 | 41.74465 | 16.40286 | 16262 ft | 356 kts | 129° |
| 2026-04-25 06:25 | 41.72852 | 16.42781 | 15802 ft | 354 kts | 129° |
| 2026-04-25 06:26 | 41.71243 | 16.45266 | 15348 ft | 352 kts | 129° |
| 2026-04-25 06:26 | 41.69635 | 16.47748 | 14884 ft | 351 kts | 129° |
| 2026-04-25 06:26 | 41.68048 | 16.50204 | 14429 ft | 349 kts | 129° |
| 2026-04-25 06:26 | 41.66456 | 16.52666 | 13967 ft | 348 kts | 129° |
| 2026-04-25 06:27 | 41.64870 | 16.55112 | 13458 ft | 347 kts | 129° |
| 2026-04-25 06:27 | 41.63293 | 16.57539 | 12991 ft | 344 kts | 129° |
| 2026-04-25 06:27 | 41.61734 | 16.59939 | 12535 ft | 341 kts | 129° |
| 2026-04-25 06:27 | 41.60177 | 16.62333 | 12053 ft | 339 kts | 129° |
| 2026-04-25 06:28 | 41.58639 | 16.64697 | 11582 ft | 337 kts | 129° |
| 2026-04-25 06:28 | 41.57102 | 16.67059 | 11113 ft | 336 kts | 130° |
| 2026-04-25 06:28 | 41.55571 | 16.69408 | 10627 ft | 335 kts | 129° |
| 2026-04-25 06:28 | 41.54059 | 16.71722 | 10421 ft | 325 kts | 129° |
| 2026-04-25 06:29 | 41.52598 | 16.73955 | 10305 ft | 313 kts | 129° |
| 2026-04-25 06:29 | 41.51190 | 16.76105 | 10129 ft | 304 kts | 129° |
| 2026-04-25 06:29 | 41.49815 | 16.78204 | 9903 ft | 297 kts | 130° |
| 2026-04-25 06:29 | 41.48458 | 16.80280 | 9569 ft | 298 kts | 130° |
| 2026-04-25 06:30 | 41.47091 | 16.82374 | 9089 ft | 300 kts | 129° |
| 2026-04-25 06:30 | 41.45726 | 16.84462 | 8695 ft | 298 kts | 129° |
| 2026-04-25 06:30 | 41.44361 | 16.86547 | 8231 ft | 298 kts | 130° |
| 2026-04-25 06:30 | 41.42992 | 16.88632 | 7737 ft | 299 kts | 130° |
| 2026-04-25 06:31 | 41.41637 | 16.90693 | 7444 ft | 293 kts | 130° |
| 2026-04-25 06:31 | 41.40291 | 16.92741 | 6997 ft | 293 kts | 130° |
| 2026-04-25 06:31 | 41.38957 | 16.94773 | 6625 ft | 289 kts | 130° |
| 2026-04-25 06:31 | 41.37639 | 16.96775 | 6010 ft | 286 kts | 130° |
| 2026-04-25 06:32 | 41.36328 | 16.98766 | 5378 ft | 284 kts | 130° |
| 2026-04-25 06:32 | 41.35074 | 17.00672 | 5234 ft | 263 kts | 130° |
| 2026-04-25 06:32 | 41.33878 | 17.02439 | 4918 ft | 255 kts | 136° |
| 2026-04-25 06:32 | 41.32433 | 17.03749 | 4676 ft | 248 kts | 156° |
| 2026-04-25 06:33 | 41.30797 | 17.04412 | 4547 ft | 246 kts | 169° |
| 2026-04-25 06:33 | 41.29116 | 17.04885 | 4426 ft | 246 kts | 168° |
| 2026-04-25 06:33 | 41.27445 | 17.05364 | 4299 ft | 246 kts | 168° |
| 2026-04-25 06:33 | 41.25770 | 17.05846 | 4172 ft | 246 kts | 168° |
| 2026-04-25 06:34 | 41.24094 | 17.06306 | 4081 ft | 245 kts | 173° |
| 2026-04-25 06:34 | 41.22492 | 17.06020 | 3995 ft | 230 kts | 209° |
| 2026-04-25 06:34 | 41.21314 | 17.04697 | 3645 ft | 224 kts | 240° |
| 2026-04-25 06:34 | 41.20840 | 17.02756 | 3295 ft | 218 kts | 264° |
| 2026-04-25 06:35 | 41.20574 | 17.00815 | 3182 ft | 210 kts | 262° |
| 2026-04-25 06:35 | 41.20282 | 16.98930 | 3078 ft | 208 kts | 260° |
| 2026-04-25 06:35 | 41.19975 | 16.97694 | 2956 ft | 210 kts | 251° |
| 2026-04-25 06:35 | 41.19287 | 16.95319 | 2684 ft | 205 kts | 252° |
| 2026-04-25 06:36 | 41.18948 | 16.94128 | 2541 ft | 202 kts | 252° |
| 2026-04-25 06:36 | 41.18473 | 16.92449 | 2361 ft | 195 kts | 253° |
| 2026-04-25 06:36 | 41.18005 | 16.90791 | 2157 ft | 188 kts | 253° |
| 2026-04-25 06:36 | 41.17555 | 16.89200 | 1977 ft | 181 kts | 253° |
| 2026-04-25 06:37 | 41.17123 | 16.87670 | 1732 ft | 174 kts | 253° |
| 2026-04-25 06:37 | 41.16705 | 16.86186 | 1511 ft | 169 kts | 253° |
| 2026-04-25 06:37 | 41.16300 | 16.84752 | 1291 ft | 163 kts | 253° |
| 2026-04-25 06:37 | 41.15919 | 16.83414 | 1084 ft | 145 kts | 252° |
| 2026-04-25 06:38 | 41.15577 | 16.82214 | 893 ft | 135 kts | 251° |
| 2026-04-25 06:38 | 41.15255 | 16.81071 | 720 ft | 131 kts | 251° |
| 2026-04-25 06:38 | 41.14940 | 16.79938 | 552 ft | 130 kts | 252° |
| 2026-04-25 06:38 | 41.14632 | 16.78824 | 393 ft | 128 kts | 251° |
| 2026-04-25 06:39 | 41.14316 | 16.77719 | 222 ft | 128 kts | 250° |
| 2026-04-25 06:39 | 41.14017 | 16.76651 | 127 ft | 112 kts | 250° |
| 2026-04-25 06:39 | 41.13800 | 16.75879 | 137 ft | 62 kts | 249° |
| 2026-04-25 06:39 | 41.13675 | 16.75683 | 140 ft | 22 kts | 215° |
| 2026-04-25 06:40 | 41.13569 | 16.75691 | 138 ft | 18 kts | 103° |
| 2026-04-25 06:40 | 41.13604 | 16.75846 | 138 ft | 18 kts | 69° |
| 2026-04-25 06:40 | 41.13636 | 16.76005 | 136 ft | 18 kts | 98° |
| 2026-04-25 06:40 | 41.13559 | 16.76120 | 136 ft | 17 kts | 118° |
| 2026-04-25 06:41 | 41.13580 | 16.76260 | 136 ft | 15 kts | 70° |
| 2026-04-25 06:41 | 41.13616 | 16.76390 | 136 ft | 12 kts | 70° |
| 2026-04-25 06:41 | 41.13576 | 16.76447 | 136 ft | 7 kts | 161° |
| 2026-04-25 06:41 | 41.13553 | 16.76459 | 136 ft | 0 kts | 159° |